F/V Anna Mamm Mari — FOHD — position and weather

sailwx.info

Track history (hours):
 
Tides and Currents Weather Stations Pressure Air Temp Water Temp Dewpoint Dewpoint Depression Visibility Wind Speed Wind Dir Waves Ship Positions

F/V Anna Mamm Mari

Last reported at 2015-Feb-27 00:04 UTC. Time now 2015-Feb-27 04:08 UTC.
Position N 46°34' W 002°05'.

Length 17 m.

Type: Fishing. MMSI: 228393000.

Date/timePositionNaut miles runAvg speedWind from/ knotsBaromVisibWave heightAir tempDewpointWater temp
2015-Feb-27 00:04N 46°34' W 002°05'4 6.5
2015-Feb-26 23:31N 46°32' W 002°00'6 6.7
2015-Feb-26 22:33N 46°29' W 001°52'3 3.1
2015-Feb-26 21:33N 46°30' W 001°48'0 0.0
2015-Feb-26 20:33N 46°30' W 001°47'0 0.2
2015-Feb-26 19:34N 46°30' W 001°47'0 0.0
2015-Feb-26 18:34N 46°30' W 001°47'5 4.6
2015-Feb-26 17:33N 46°30' W 001°54'  
2015-Feb-22 23:30N 46°33' W 002°01'8 8.3
2015-Feb-22 22:34N 46°29' W 001°51'3 2.6
2015-Feb-22 21:33N 46°30' W 001°47'0 0.2
2015-Feb-22 20:33N 46°30' W 001°47'2 1.9
2015-Feb-22 19:33N 46°28' W 001°48'8 8.5
2015-Feb-22 18:33N 46°31' W 001°60'9 8.8
2015-Feb-22 17:33N 46°35' W 002°11'  
2015-Feb-18 21:27N 46°33' W 002°05'8 9.3
2015-Feb-18 20:33N 46°30' W 001°54'5 4.7
2015-Feb-18 19:33N 46°30' W 001°47'0 0.2
2015-Feb-18 18:33N 46°30' W 001°47'0 0.0
2015-Feb-18 17:33N 46°30' W 001°47'3 3.5
2015-Feb-18 16:33N 46°29' W 001°52'9 9.2
2015-Feb-18 15:32N 46°33' W 002°05'  
Track history (hours):
 
Tides and Currents Weather Stations Pressure Air Temp Water Temp Dewpoint Dewpoint Depression Visibility Wind Speed Wind Dir Waves Ship Positions

F/V Anna Mamm Mari

Last reported at 2015-Feb-27 00:04 UTC. Time now 2015-Feb-27 04:08 UTC.
Position N 46°34' W 002°05'.

Length 17 m.

Type: Fishing. MMSI: 228393000.

Date/timePositionNaut miles runAvg speedWind from/ knotsBaromVisibWave heightAir tempDewpointWater temp
2015-Feb-27 00:04N 46°34' W 002°05'4 6.5
2015-Feb-26 23:31N 46°32' W 002°00'6 6.7
2015-Feb-26 22:33N 46°29' W 001°52'3 3.1
2015-Feb-26 21:33N 46°30' W 001°48'0 0.0
2015-Feb-26 20:33N 46°30' W 001°47'0 0.2
2015-Feb-26 19:34N 46°30' W 001°47'0 0.0
2015-Feb-26 18:34N 46°30' W 001°47'5 4.6
2015-Feb-26 17:33N 46°30' W 001°54'  
2015-Feb-22 23:30N 46°33' W 002°01'8 8.3
2015-Feb-22 22:34N 46°29' W 001°51'3 2.6
2015-Feb-22 21:33N 46°30' W 001°47'0 0.2
2015-Feb-22 20:33N 46°30' W 001°47'2 1.9
2015-Feb-22 19:33N 46°28' W 001°48'8 8.5
2015-Feb-22 18:33N 46°31' W 001°60'9 8.8
2015-Feb-22 17:33N 46°35' W 002°11'  
2015-Feb-18 21:27N 46°33' W 002°05'8 9.3
2015-Feb-18 20:33N 46°30' W 001°54'5 4.7
2015-Feb-18 19:33N 46°30' W 001°47'0 0.2
2015-Feb-18 18:33N 46°30' W 001°47'0 0.0
2015-Feb-18 17:33N 46°30' W 001°47'3 3.5
2015-Feb-18 16:33N 46°29' W 001°52'9 9.2
2015-Feb-18 15:32N 46°33' W 002°05'  

Dump ship's entire track history